sensor_id;sensor_type;location;lat;lon;timestamp;P1;durP1;ratioP1;P2;durP2;ratioP2
64031;SDS011;50278;47.796;11.968;2023-03-23T00:00:59;2.95;;;1.48;;
64031;SDS011;50278;47.796;11.968;2023-03-23T00:03:26;3.30;;;1.38;;
64031;SDS011;50278;47.796;11.968;2023-03-23T00:05:54;3.65;;;1.55;;
64031;SDS011;50278;47.796;11.968;2023-03-23T00:08:27;3.30;;;1.42;;
64031;SDS011;50278;47.796;11.968;2023-03-23T00:10:53;1.73;;;1.33;;
64031;SDS011;50278;47.796;11.968;2023-03-23T00:13:24;2.20;;;1.20;;
64031;SDS011;50278;47.796;11.968;2023-03-23T00:15:51;2.20;;;1.48;;
64031;SDS011;50278;47.796;11.968;2023-03-23T00:18:17;2.47;;;1.30;;
64031;SDS011;50278;47.796;11.968;2023-03-23T00:20:46;2.30;;;1.80;;
64031;SDS011;50278;47.796;11.968;2023-03-23T00:23:14;1.73;;;1.38;;
64031;SDS011;50278;47.796;11.968;2023-03-23T00:25:47;3.78;;;1.65;;
64031;SDS011;50278;47.796;11.968;2023-03-23T00:28:14;3.78;;;1.50;;
64031;SDS011;50278;47.796;11.968;2023-03-23T00:30:43;2.38;;;1.58;;
64031;SDS011;50278;47.796;11.968;2023-03-23T00:33:10;2.55;;;1.40;;
64031;SDS011;50278;47.796;11.968;2023-03-23T00:35:39;2.63;;;1.40;;
64031;SDS011;50278;47.796;11.968;2023-03-23T00:38:05;4.28;;;1.40;;
64031;SDS011;50278;47.796;11.968;2023-03-23T00:40:31;2.22;;;1.30;;
64031;SDS011;50278;47.796;11.968;2023-03-23T00:43:01;2.50;;;0.90;;
64031;SDS011;50278;47.796;11.968;2023-03-23T00:45:28;4.40;;;1.75;;
64031;SDS011;50278;47.796;11.968;2023-03-23T00:47:54;2.20;;;1.38;;
64031;SDS011;50278;47.796;11.968;2023-03-23T00:50:19;3.65;;;1.10;;
64031;SDS011;50278;47.796;11.968;2023-03-23T00:52:45;2.88;;;1.33;;
64031;SDS011;50278;47.796;11.968;2023-03-23T00:55:10;1.63;;;0.98;;
64031;SDS011;50278;47.796;11.968;2023-03-23T00:57:36;1.98;;;1.10;;
64031;SDS011;50278;47.796;11.968;2023-03-23T01:00:02;2.70;;;1.13;;
64031;SDS011;50278;47.796;11.968;2023-03-23T01:02:34;2.72;;;1.45;;
64031;SDS011;50278;47.796;11.968;2023-03-23T01:05:03;2.30;;;1.50;;
64031;SDS011;50278;47.796;11.968;2023-03-23T01:07:28;4.85;;;1.55;;
64031;SDS011;50278;47.796;11.968;2023-03-23T01:09:56;2.50;;;1.40;;
64031;SDS011;50278;47.796;11.968;2023-03-23T01:12:22;2.75;;;1.60;;
64031;SDS011;50278;47.796;11.968;2023-03-23T01:14:49;2.00;;;1.33;;
64031;SDS011;50278;47.796;11.968;2023-03-23T01:17:16;3.63;;;1.88;;
64031;SDS011;50278;47.796;11.968;2023-03-23T01:19:41;55.35;;;18.05;;
64031;SDS011;50278;47.796;11.968;2023-03-23T01:22:07;22.30;;;7.45;;
64031;SDS011;50278;47.796;11.968;2023-03-23T01:24:33;5.30;;;2.17;;
64031;SDS011;50278;47.796;11.968;2023-03-23T01:26:58;6.75;;;2.22;;
64031;SDS011;50278;47.796;11.968;2023-03-23T01:29:31;4.30;;;2.55;;
64031;SDS011;50278;47.796;11.968;2023-03-23T01:32:00;4.55;;;2.00;;
64031;SDS011;50278;47.796;11.968;2023-03-23T01:34:26;2.85;;;1.58;;
64031;SDS011;50278;47.796;11.968;2023-03-23T01:36:51;2.97;;;1.88;;
64031;SDS011;50278;47.796;11.968;2023-03-23T01:39:17;1.90;;;1.50;;
64031;SDS011;50278;47.796;11.968;2023-03-23T01:41:43;5.22;;;1.70;;
64031;SDS011;50278;47.796;11.968;2023-03-23T01:46:45;3.75;;;2.40;;
64031;SDS011;50278;47.796;11.968;2023-03-23T01:49:12;2.05;;;1.55;;
64031;SDS011;50278;47.796;11.968;2023-03-23T01:51:43;3.72;;;2.10;;
64031;SDS011;50278;47.796;11.968;2023-03-23T01:54:17;2.88;;;1.55;;
64031;SDS011;50278;47.796;11.968;2023-03-23T01:56:47;2.95;;;1.70;;
64031;SDS011;50278;47.796;11.968;2023-03-23T01:59:17;4.47;;;1.70;;
64031;SDS011;50278;47.796;11.968;2023-03-23T02:01:50;2.95;;;1.70;;
64031;SDS011;50278;47.796;11.968;2023-03-23T02:04:18;3.03;;;1.75;;
64031;SDS011;50278;47.796;11.968;2023-03-23T02:06:45;2.35;;;1.60;;
64031;SDS011;50278;47.796;11.968;2023-03-23T02:09:16;2.75;;;1.70;;
64031;SDS011;50278;47.796;11.968;2023-03-23T02:11:47;3.90;;;1.77;;
64031;SDS011;50278;47.796;11.968;2023-03-23T02:14:15;2.20;;;1.70;;
64031;SDS011;50278;47.796;11.968;2023-03-23T02:36:00;3.58;;;2.60;;
64031;SDS011;50278;47.796;11.968;2023-03-23T02:38:38;4.43;;;2.13;;
64031;SDS011;50278;47.796;11.968;2023-03-23T02:41:07;3.65;;;2.00;;
64031;SDS011;50278;47.796;11.968;2023-03-23T02:43:40;2.92;;;1.80;;
64031;SDS011;50278;47.796;11.968;2023-03-23T02:46:08;5.35;;;1.55;;
64031;SDS011;50278;47.796;11.968;2023-03-23T02:48:36;4.22;;;2.00;;
64031;SDS011;50278;47.796;11.968;2023-03-23T02:51:05;5.00;;;1.58;;
64031;SDS011;50278;47.796;11.968;2023-03-23T02:53:33;3.65;;;1.80;;
64031;SDS011;50278;47.796;11.968;2023-03-23T02:56:01;2.65;;;1.60;;
64031;SDS011;50278;47.796;11.968;2023-03-23T02:58:30;3.08;;;1.98;;
64031;SDS011;50278;47.796;11.968;2023-03-23T03:00:57;3.70;;;1.85;;
64031;SDS011;50278;47.796;11.968;2023-03-23T03:03:26;2.35;;;1.50;;
64031;SDS011;50278;47.796;11.968;2023-03-23T03:11:25;6.63;;;1.70;;
64031;SDS011;50278;47.796;11.968;2023-03-23T03:13:59;2.33;;;1.50;;
64031;SDS011;50278;47.796;11.968;2023-03-23T03:16:38;3.20;;;1.48;;
64031;SDS011;50278;47.796;11.968;2023-03-23T03:19:27;1.85;;;1.30;;
64031;SDS011;50278;47.796;11.968;2023-03-23T03:21:56;2.08;;;1.40;;
64031;SDS011;50278;47.796;11.968;2023-03-23T03:24:34;3.20;;;1.50;;
64031;SDS011;50278;47.796;11.968;2023-03-23T03:27:09;2.00;;;1.38;;
64031;SDS011;50278;47.796;11.968;2023-03-23T03:29:47;4.07;;;1.45;;
64031;SDS011;50278;47.796;11.968;2023-03-23T03:32:18;2.80;;;1.58;;
64031;SDS011;50278;47.796;11.968;2023-03-23T03:34:48;2.63;;;1.60;;
64031;SDS011;50278;47.796;11.968;2023-03-23T03:37:16;2.10;;;1.30;;
64031;SDS011;50278;47.796;11.968;2023-03-23T03:39:44;2.42;;;1.70;;
64031;SDS011;50278;47.796;11.968;2023-03-23T03:42:09;2.92;;;1.42;;
64031;SDS011;50278;47.796;11.968;2023-03-23T03:44:35;2.78;;;1.42;;
64031;SDS011;50278;47.796;11.968;2023-03-23T03:47:00;3.20;;;1.35;;
64031;SDS011;50278;47.796;11.968;2023-03-23T03:49:27;1.67;;;1.15;;
64031;SDS011;50278;47.796;11.968;2023-03-23T03:51:53;2.08;;;1.40;;
64031;SDS011;50278;47.796;11.968;2023-03-23T03:54:24;1.92;;;1.50;;
64031;SDS011;50278;47.796;11.968;2023-03-23T03:56:50;2.83;;;1.40;;
64031;SDS011;50278;47.796;11.968;2023-03-23T03:59:55;1.65;;;1.20;;
64031;SDS011;50278;47.796;11.968;2023-03-23T04:02:40;2.92;;;1.38;;
64031;SDS011;50278;47.796;11.968;2023-03-23T04:05:13;2.17;;;1.50;;
64031;SDS011;50278;47.796;11.968;2023-03-23T04:07:39;2.45;;;1.48;;
64031;SDS011;50278;47.796;11.968;2023-03-23T04:10:06;4.88;;;1.60;;
64031;SDS011;50278;47.796;11.968;2023-03-23T04:12:34;4.45;;;1.98;;
64031;SDS011;50278;47.796;11.968;2023-03-23T04:15:09;2.80;;;1.42;;
64031;SDS011;50278;47.796;11.968;2023-03-23T04:17:35;2.42;;;1.67;;
64031;SDS011;50278;47.796;11.968;2023-03-23T04:20:02;2.30;;;1.27;;
64031;SDS011;50278;47.796;11.968;2023-03-23T04:22:38;3.78;;;1.67;;
64031;SDS011;50278;47.796;11.968;2023-03-23T04:25:03;3.28;;;1.40;;
64031;SDS011;50278;47.796;11.968;2023-03-23T04:27:34;3.28;;;1.45;;
64031;SDS011;50278;47.796;11.968;2023-03-23T04:30:02;2.55;;;1.80;;
64031;SDS011;50278;47.796;11.968;2023-03-23T04:32:46;3.67;;;1.52;;
64031;SDS011;50278;47.796;11.968;2023-03-23T04:35:18;5.70;;;1.77;;
64031;SDS011;50278;47.796;11.968;2023-03-23T04:38:15;2.38;;;1.45;;
64031;SDS011;50278;47.796;11.968;2023-03-23T04:40:47;2.75;;;1.70;;
64031;SDS011;50278;47.796;11.968;2023-03-23T04:43:36;3.58;;;1.40;;
64031;SDS011;50278;47.796;11.968;2023-03-23T04:46:25;2.53;;;1.33;;
64031;SDS011;50278;47.796;11.968;2023-03-23T04:48:55;3.33;;;1.35;;
64031;SDS011;50278;47.796;11.968;2023-03-23T04:51:28;2.58;;;1.73;;
64031;SDS011;50278;47.796;11.968;2023-03-23T04:53:54;2.00;;;1.33;;
64031;SDS011;50278;47.796;11.968;2023-03-23T04:56:21;3.30;;;1.17;;
64031;SDS011;50278;47.796;11.968;2023-03-23T04:58:47;2.40;;;1.42;;
64031;SDS011;50278;47.796;11.968;2023-03-23T05:01:24;5.88;;;1.60;;
64031;SDS011;50278;47.796;11.968;2023-03-23T05:04:13;2.33;;;1.27;;
64031;SDS011;50278;47.796;11.968;2023-03-23T05:06:48;3.75;;;1.45;;
64031;SDS011;50278;47.796;11.968;2023-03-23T05:09:21;2.67;;;1.70;;
64031;SDS011;50278;47.796;11.968;2023-03-23T05:11:47;1.95;;;1.13;;
64031;SDS011;50278;47.796;11.968;2023-03-23T05:14:14;2.80;;;1.27;;
64031;SDS011;50278;47.796;11.968;2023-03-23T05:16:42;5.38;;;2.88;;
64031;SDS011;50278;47.796;11.968;2023-03-23T05:19:12;2.42;;;1.35;;
64031;SDS011;50278;47.796;11.968;2023-03-23T05:21:38;2.83;;;1.45;;
64031;SDS011;50278;47.796;11.968;2023-03-23T05:24:05;2.90;;;1.35;;
64031;SDS011;50278;47.796;11.968;2023-03-23T05:26:31;2.63;;;1.38;;
64031;SDS011;50278;47.796;11.968;2023-03-23T05:29:03;3.10;;;1.33;;
64031;SDS011;50278;47.796;11.968;2023-03-23T05:31:39;1.95;;;1.20;;
64031;SDS011;50278;47.796;11.968;2023-03-23T05:34:05;1.83;;;1.27;;
64031;SDS011;50278;47.796;11.968;2023-03-23T05:36:37;2.58;;;1.30;;
64031;SDS011;50278;47.796;11.968;2023-03-23T05:39:10;2.70;;;1.42;;
64031;SDS011;50278;47.796;11.968;2023-03-23T05:41:55;2.47;;;1.50;;
64031;SDS011;50278;47.796;11.968;2023-03-23T05:44:23;2.53;;;1.30;;
64031;SDS011;50278;47.796;11.968;2023-03-23T05:46:52;2.42;;;1.27;;
64031;SDS011;50278;47.796;11.968;2023-03-23T05:49:18;1.92;;;1.20;;
64031;SDS011;50278;47.796;11.968;2023-03-23T05:51:45;4.25;;;1.17;;
64031;SDS011;50278;47.796;11.968;2023-03-23T05:54:12;2.25;;;1.20;;
64031;SDS011;50278;47.796;11.968;2023-03-23T05:56:40;1.90;;;1.30;;
64031;SDS011;50278;47.796;11.968;2023-03-23T05:59:32;3.67;;;1.08;;
64031;SDS011;50278;47.796;11.968;2023-03-23T06:01:59;10.13;;;1.60;;
64031;SDS011;50278;47.796;11.968;2023-03-23T06:04:25;4.47;;;1.00;;
64031;SDS011;50278;47.796;11.968;2023-03-23T06:07:07;14.52;;;1.40;;
64031;SDS011;50278;47.796;11.968;2023-03-23T06:09:42;2.17;;;1.20;;
64031;SDS011;50278;47.796;11.968;2023-03-23T06:12:08;47.53;;;4.57;;
64031;SDS011;50278;47.796;11.968;2023-03-23T06:14:42;3.85;;;1.35;;
64031;SDS011;50278;47.796;11.968;2023-03-23T06:17:09;2.78;;;1.33;;
64031;SDS011;50278;47.796;11.968;2023-03-23T06:19:35;2.78;;;1.30;;
64031;SDS011;50278;47.796;11.968;2023-03-23T06:22:07;2.38;;;1.27;;
64031;SDS011;50278;47.796;11.968;2023-03-23T06:24:52;7.90;;;1.52;;
64031;SDS011;50278;47.796;11.968;2023-03-23T06:27:25;2.47;;;1.20;;
64031;SDS011;50278;47.796;11.968;2023-03-23T06:29:50;6.03;;;1.80;;
64031;SDS011;50278;47.796;11.968;2023-03-23T06:32:16;11.23;;;2.35;;
64031;SDS011;50278;47.796;11.968;2023-03-23T06:34:43;70.38;;;4.80;;
64031;SDS011;50278;47.796;11.968;2023-03-23T06:37:27;12.23;;;1.65;;
64031;SDS011;50278;47.796;11.968;2023-03-23T06:40:02;8.57;;;1.95;;
64031;SDS011;50278;47.796;11.968;2023-03-23T06:42:37;3.85;;;1.17;;
64031;SDS011;50278;47.796;11.968;2023-03-23T06:45:21;3.92;;;1.10;;
64031;SDS011;50278;47.796;11.968;2023-03-23T06:47:52;3.03;;;1.00;;
64031;SDS011;50278;47.796;11.968;2023-03-23T06:50:17;5.68;;;1.20;;
64031;SDS011;50278;47.796;11.968;2023-03-23T06:52:48;2.90;;;1.02;;
64031;SDS011;50278;47.796;11.968;2023-03-23T06:55:16;5.30;;;1.38;;
64031;SDS011;50278;47.796;11.968;2023-03-23T06:57:43;13.93;;;2.70;;
64031;SDS011;50278;47.796;11.968;2023-03-23T07:00:11;15.73;;;2.35;;
64031;SDS011;50278;47.796;11.968;2023-03-23T07:02:39;8.05;;;1.80;;
64031;SDS011;50278;47.796;11.968;2023-03-23T07:05:06;6.25;;;1.50;;
64031;SDS011;50278;47.796;11.968;2023-03-23T07:07:34;6.05;;;1.60;;
64031;SDS011;50278;47.796;11.968;2023-03-23T07:10:20;5.60;;;1.60;;
64031;SDS011;50278;47.796;11.968;2023-03-23T07:12:46;37.65;;;3.55;;
64031;SDS011;50278;47.796;11.968;2023-03-23T07:15:11;6.28;;;1.95;;
64031;SDS011;50278;47.796;11.968;2023-03-23T07:17:39;3.90;;;2.20;;
64031;SDS011;50278;47.796;11.968;2023-03-23T07:20:21;7.30;;;3.30;;
64031;SDS011;50278;47.796;11.968;2023-03-23T07:22:46;8.00;;;2.00;;
64031;SDS011;50278;47.796;11.968;2023-03-23T07:25:33;6.22;;;2.28;;
64031;SDS011;50278;47.796;11.968;2023-03-23T07:28:00;5.68;;;1.63;;
64031;SDS011;50278;47.796;11.968;2023-03-23T07:30:27;4.60;;;1.85;;
64031;SDS011;50278;47.796;11.968;2023-03-23T07:32:57;5.82;;;1.70;;
64031;SDS011;50278;47.796;11.968;2023-03-23T07:35:24;4.53;;;1.73;;
64031;SDS011;50278;47.796;11.968;2023-03-23T07:37:57;6.57;;;1.83;;
64031;SDS011;50278;47.796;11.968;2023-03-23T07:40:24;2.45;;;1.50;;
64031;SDS011;50278;47.796;11.968;2023-03-23T07:42:53;2.13;;;1.50;;
64031;SDS011;50278;47.796;11.968;2023-03-23T07:45:40;2.08;;;1.55;;
64031;SDS011;50278;47.796;11.968;2023-03-23T07:48:06;2.40;;;1.40;;
64031;SDS011;50278;47.796;11.968;2023-03-23T07:50:31;1.98;;;1.13;;
64031;SDS011;50278;47.796;11.968;2023-03-23T07:52:58;3.50;;;1.30;;
64031;SDS011;50278;47.796;11.968;2023-03-23T07:55:27;6.78;;;1.60;;
64031;SDS011;50278;47.796;11.968;2023-03-23T07:58:02;2.83;;;1.42;;
64031;SDS011;50278;47.796;11.968;2023-03-23T08:00:28;7.30;;;1.42;;
64031;SDS011;50278;47.796;11.968;2023-03-23T08:02:56;4.18;;;1.40;;
64031;SDS011;50278;47.796;11.968;2023-03-23T08:05:28;3.17;;;1.23;;
64031;SDS011;50278;47.796;11.968;2023-03-23T08:08:20;2.78;;;1.40;;
64031;SDS011;50278;47.796;11.968;2023-03-23T08:11:20;3.30;;;1.30;;
64031;SDS011;50278;47.796;11.968;2023-03-23T08:14:06;3.15;;;1.30;;
64031;SDS011;50278;47.796;11.968;2023-03-23T08:16:42;4.20;;;1.30;;
64031;SDS011;50278;47.796;11.968;2023-03-23T08:19:25;3.78;;;1.45;;
64031;SDS011;50278;47.796;11.968;2023-03-23T08:22:10;7.03;;;2.53;;
64031;SDS011;50278;47.796;11.968;2023-03-23T08:24:54;6.63;;;2.70;;
64031;SDS011;50278;47.796;11.968;2023-03-23T08:27:39;7.80;;;2.85;;
64031;SDS011;50278;47.796;11.968;2023-03-23T08:30:21;5.97;;;2.60;;
64031;SDS011;50278;47.796;11.968;2023-03-23T08:33:10;7.45;;;2.85;;
64031;SDS011;50278;47.796;11.968;2023-03-23T08:35:54;6.30;;;2.70;;
64031;SDS011;50278;47.796;11.968;2023-03-23T08:38:43;4.90;;;2.72;;
64031;SDS011;50278;47.796;11.968;2023-03-23T08:41:41;4.97;;;2.42;;
64031;SDS011;50278;47.796;11.968;2023-03-23T08:44:17;6.50;;;3.38;;
64031;SDS011;50278;47.796;11.968;2023-03-23T08:47:10;9.60;;;5.35;;
64031;SDS011;50278;47.796;11.968;2023-03-23T08:50:01;10.98;;;7.18;;
64031;SDS011;50278;47.796;11.968;2023-03-23T08:52:34;10.50;;;6.28;;
64031;SDS011;50278;47.796;11.968;2023-03-23T08:55:13;12.32;;;6.07;;
64031;SDS011;50278;47.796;11.968;2023-03-23T08:58:15;9.45;;;4.82;;
64031;SDS011;50278;47.796;11.968;2023-03-23T09:00:59;7.07;;;5.18;;
64031;SDS011;50278;47.796;11.968;2023-03-23T09:03:34;7.10;;;5.00;;
64031;SDS011;50278;47.796;11.968;2023-03-23T09:06:28;8.43;;;4.95;;
64031;SDS011;50278;47.796;11.968;2023-03-23T09:08:54;6.38;;;4.63;;
64031;SDS011;50278;47.796;11.968;2023-03-23T09:11:24;6.85;;;4.60;;
64031;SDS011;50278;47.796;11.968;2023-03-23T09:13:50;5.13;;;3.60;;
64031;SDS011;50278;47.796;11.968;2023-03-23T09:16:15;7.80;;;3.92;;
64031;SDS011;50278;47.796;11.968;2023-03-23T09:18:41;8.18;;;5.13;;
64031;SDS011;50278;47.796;11.968;2023-03-23T09:21:06;9.55;;;6.20;;
64031;SDS011;50278;47.796;11.968;2023-03-23T09:23:33;7.35;;;5.57;;
64031;SDS011;50278;47.796;11.968;2023-03-23T09:26:02;9.05;;;6.35;;
64031;SDS011;50278;47.796;11.968;2023-03-23T09:28:28;9.70;;;5.72;;
64031;SDS011;50278;47.796;11.968;2023-03-23T09:30:55;9.43;;;6.72;;
64031;SDS011;50278;47.796;11.968;2023-03-23T09:33:22;14.90;;;7.00;;
64031;SDS011;50278;47.796;11.968;2023-03-23T09:35:48;15.20;;;6.88;;
64031;SDS011;50278;47.796;11.968;2023-03-23T09:38:14;13.90;;;6.35;;
64031;SDS011;50278;47.796;11.968;2023-03-23T09:43:19;10.73;;;5.57;;
64031;SDS011;50278;47.796;11.968;2023-03-23T09:46:05;4.88;;;3.75;;
64031;SDS011;50278;47.796;11.968;2023-03-23T09:54:27;6.38;;;4.63;;
64031;SDS011;50278;47.796;11.968;2023-03-23T09:57:02;6.53;;;4.28;;
64031;SDS011;50278;47.796;11.968;2023-03-23T09:59:30;7.15;;;3.95;;
64031;SDS011;50278;47.796;11.968;2023-03-23T10:04:54;5.78;;;3.53;;
64031;SDS011;50278;47.796;11.968;2023-03-23T10:07:23;4.05;;;2.60;;
64031;SDS011;50278;47.796;11.968;2023-03-23T10:09:55;4.78;;;2.80;;
64031;SDS011;50278;47.796;11.968;2023-03-23T10:12:25;5.28;;;3.10;;
64031;SDS011;50278;47.796;11.968;2023-03-23T10:17:49;4.63;;;2.90;;
64031;SDS011;50278;47.796;11.968;2023-03-23T10:25:58;4.60;;;3.05;;
64031;SDS011;50278;47.796;11.968;2023-03-23T10:28:45;6.97;;;3.50;;
64031;SDS011;50278;47.796;11.968;2023-03-23T10:31:17;7.30;;;3.85;;
64031;SDS011;50278;47.796;11.968;2023-03-23T10:33:49;5.40;;;3.63;;
64031;SDS011;50278;47.796;11.968;2023-03-23T10:36:31;6.38;;;3.03;;
64031;SDS011;50278;47.796;11.968;2023-03-23T10:39:10;5.18;;;3.00;;
64031;SDS011;50278;47.796;11.968;2023-03-23T10:41:45;7.60;;;3.08;;
64031;SDS011;50278;47.796;11.968;2023-03-23T10:44:14;3.95;;;2.92;;
64031;SDS011;50278;47.796;11.968;2023-03-23T10:49:23;8.60;;;3.50;;
64031;SDS011;50278;47.796;11.968;2023-03-23T10:52:02;7.53;;;3.35;;
64031;SDS011;50278;47.796;11.968;2023-03-23T10:54:38;7.82;;;3.28;;
64031;SDS011;50278;47.796;11.968;2023-03-23T10:57:12;6.68;;;3.15;;
64031;SDS011;50278;47.796;11.968;2023-03-23T10:59:45;3.95;;;2.60;;
64031;SDS011;50278;47.796;11.968;2023-03-23T11:02:16;7.63;;;3.30;;
64031;SDS011;50278;47.796;11.968;2023-03-23T11:04:53;6.80;;;3.00;;
64031;SDS011;50278;47.796;11.968;2023-03-23T11:07:34;2.97;;;2.40;;
64031;SDS011;50278;47.796;11.968;2023-03-23T11:10:47;12.95;;;3.65;;
64031;SDS011;50278;47.796;11.968;2023-03-23T11:12:57;6.05;;;2.90;;
64031;SDS011;50278;47.796;11.968;2023-03-23T11:15:28;7.53;;;3.30;;
64031;SDS011;50278;47.796;11.968;2023-03-23T11:18:11;7.38;;;4.20;;
64031;SDS011;50278;47.796;11.968;2023-03-23T11:20:42;8.98;;;3.75;;
64031;SDS011;50278;47.796;11.968;2023-03-23T11:23:18;11.63;;;4.18;;
64031;SDS011;50278;47.796;11.968;2023-03-23T11:25:54;8.75;;;3.42;;
64031;SDS011;50278;47.796;11.968;2023-03-23T11:28:25;6.25;;;3.15;;
64031;SDS011;50278;47.796;11.968;2023-03-23T11:30:54;7.45;;;3.20;;
64031;SDS011;50278;47.796;11.968;2023-03-23T11:33:22;4.57;;;3.20;;
64031;SDS011;50278;47.796;11.968;2023-03-23T11:35:50;6.97;;;3.08;;
64031;SDS011;50278;47.796;11.968;2023-03-23T11:38:18;8.15;;;3.13;;
64031;SDS011;50278;47.796;11.968;2023-03-23T11:40:50;4.03;;;3.20;;
64031;SDS011;50278;47.796;11.968;2023-03-23T11:43:20;7.22;;;3.00;;
64031;SDS011;50278;47.796;11.968;2023-03-23T11:51:46;4.10;;;3.15;;
64031;SDS011;50278;47.796;11.968;2023-03-23T11:54:15;5.85;;;3.65;;
64031;SDS011;50278;47.796;11.968;2023-03-23T11:56:43;5.82;;;2.80;;
64031;SDS011;50278;47.796;11.968;2023-03-23T11:59:11;5.15;;;3.10;;
64031;SDS011;50278;47.796;11.968;2023-03-23T12:17:58;3.85;;;3.20;;
64031;SDS011;50278;47.796;11.968;2023-03-23T12:37:33;4.32;;;3.45;;
64031;SDS011;50278;47.796;11.968;2023-03-23T12:40:21;3.72;;;2.97;;
64031;SDS011;50278;47.796;11.968;2023-03-23T12:42:58;10.60;;;7.57;;
64031;SDS011;50278;47.796;11.968;2023-03-23T12:45:43;7.53;;;3.55;;
64031;SDS011;50278;47.796;11.968;2023-03-23T12:48:46;7.32;;;4.00;;
64031;SDS011;50278;47.796;11.968;2023-03-23T12:54:32;7.70;;;3.50;;
64031;SDS011;50278;47.796;11.968;2023-03-23T12:59:23;7.40;;;3.33;;
64031;SDS011;50278;47.796;11.968;2023-03-23T13:01:58;3.08;;;2.78;;
64031;SDS011;50278;47.796;11.968;2023-03-23T13:04:32;3.75;;;3.20;;
64031;SDS011;50278;47.796;11.968;2023-03-23T13:07:05;6.20;;;3.00;;
64031;SDS011;50278;47.796;11.968;2023-03-23T13:09:53;6.38;;;3.72;;
64031;SDS011;50278;47.796;11.968;2023-03-23T13:12:24;7.50;;;3.38;;
64031;SDS011;50278;47.796;11.968;2023-03-23T13:17:44;9.93;;;3.25;;
64031;SDS011;50278;47.796;11.968;2023-03-23T13:23:26;10.23;;;3.47;;
64031;SDS011;50278;47.796;11.968;2023-03-23T13:26:02;9.60;;;3.35;;
64031;SDS011;50278;47.796;11.968;2023-03-23T13:31:29;4.57;;;3.13;;
64031;SDS011;50278;47.796;11.968;2023-03-23T13:36:43;3.15;;;2.60;;
64031;SDS011;50278;47.796;11.968;2023-03-23T13:39:24;6.00;;;3.00;;
64031;SDS011;50278;47.796;11.968;2023-03-23T13:47:21;15.00;;;3.97;;
64031;SDS011;50278;47.796;11.968;2023-03-23T13:49:58;6.75;;;2.28;;
64031;SDS011;50278;47.796;11.968;2023-03-23T14:05:39;8.25;;;2.55;;
64031;SDS011;50278;47.796;11.968;2023-03-23T14:13:18;4.65;;;1.95;;
64031;SDS011;50278;47.796;11.968;2023-03-23T14:16:35;13.65;;;3.05;;
64031;SDS011;50278;47.796;11.968;2023-03-23T14:18:39;6.95;;;2.20;;
64031;SDS011;50278;47.796;11.968;2023-03-23T14:21:12;5.85;;;2.00;;
64031;SDS011;50278;47.796;11.968;2023-03-23T14:23:40;2.33;;;1.77;;
64031;SDS011;50278;47.796;11.968;2023-03-23T14:26:26;3.30;;;1.95;;
64031;SDS011;50278;47.796;11.968;2023-03-23T14:28:52;3.90;;;1.85;;
64031;SDS011;50278;47.796;11.968;2023-03-23T14:31:19;3.22;;;1.77;;
64031;SDS011;50278;47.796;11.968;2023-03-23T14:33:47;3.33;;;2.10;;
64031;SDS011;50278;47.796;11.968;2023-03-23T14:36:14;6.38;;;2.00;;
64031;SDS011;50278;47.796;11.968;2023-03-23T14:38:45;2.83;;;2.20;;
64031;SDS011;50278;47.796;11.968;2023-03-23T14:41:10;5.35;;;1.80;;
64031;SDS011;50278;47.796;11.968;2023-03-23T14:43:37;8.98;;;2.70;;
64031;SDS011;50278;47.796;11.968;2023-03-23T14:46:05;3.08;;;1.70;;
64031;SDS011;50278;47.796;11.968;2023-03-23T14:48:33;2.70;;;1.85;;
64031;SDS011;50278;47.796;11.968;2023-03-23T14:51:01;34.92;;;4.50;;
64031;SDS011;50278;47.796;11.968;2023-03-23T14:56:02;4.18;;;1.95;;
64031;SDS011;50278;47.796;11.968;2023-03-23T14:58:34;4.10;;;1.60;;
64031;SDS011;50278;47.796;11.968;2023-03-23T15:01:01;5.45;;;1.48;;
64031;SDS011;50278;47.796;11.968;2023-03-23T15:03:35;16.90;;;2.58;;
64031;SDS011;50278;47.796;11.968;2023-03-23T15:06:25;3.85;;;1.83;;
64031;SDS011;50278;47.796;11.968;2023-03-23T15:08:54;5.07;;;1.67;;
64031;SDS011;50278;47.796;11.968;2023-03-23T15:11:39;7.72;;;1.70;;
64031;SDS011;50278;47.796;11.968;2023-03-23T15:14:17;45.33;;;4.00;;
64031;SDS011;50278;47.796;11.968;2023-03-23T15:16:55;15.80;;;2.75;;
64031;SDS011;50278;47.796;11.968;2023-03-23T15:24:46;5.75;;;1.90;;
64031;SDS011;50278;47.796;11.968;2023-03-23T15:27:15;7.68;;;1.40;;
64031;SDS011;50278;47.796;11.968;2023-03-23T15:29:46;6.53;;;1.40;;
64031;SDS011;50278;47.796;11.968;2023-03-23T15:32:25;2.80;;;1.05;;
64031;SDS011;50278;47.796;11.968;2023-03-23T15:34:53;3.47;;;0.90;;
64031;SDS011;50278;47.796;11.968;2023-03-23T15:37:27;9.18;;;1.20;;
64031;SDS011;50278;47.796;11.968;2023-03-23T15:39:55;8.88;;;1.40;;
64031;SDS011;50278;47.796;11.968;2023-03-23T15:45:35;3.50;;;0.95;;
64031;SDS011;50278;47.796;11.968;2023-03-23T15:47:47;4.90;;;1.30;;
64031;SDS011;50278;47.796;11.968;2023-03-23T15:50:15;6.78;;;1.23;;
64031;SDS011;50278;47.796;11.968;2023-03-23T15:52:45;7.70;;;1.38;;
64031;SDS011;50278;47.796;11.968;2023-03-23T15:55:55;4.43;;;1.25;;
64031;SDS011;50278;47.796;11.968;2023-03-23T15:58:10;20.25;;;2.10;;
64031;SDS011;50278;47.796;11.968;2023-03-23T16:00:37;16.83;;;2.05;;
64031;SDS011;50278;47.796;11.968;2023-03-23T16:03:05;7.50;;;1.40;;
64031;SDS011;50278;47.796;11.968;2023-03-23T16:05:33;3.67;;;1.00;;
64031;SDS011;50278;47.796;11.968;2023-03-23T16:07:59;2.38;;;1.10;;
64031;SDS011;50278;47.796;11.968;2023-03-23T16:10:25;2.78;;;1.05;;
64031;SDS011;50278;47.796;11.968;2023-03-23T16:12:52;2.15;;;1.10;;
64031;SDS011;50278;47.796;11.968;2023-03-23T16:15:17;23.40;;;9.73;;
64031;SDS011;50278;47.796;11.968;2023-03-23T16:17:43;15.20;;;9.27;;
64031;SDS011;50278;47.796;11.968;2023-03-23T16:20:15;7.72;;;3.35;;
64031;SDS011;50278;47.796;11.968;2023-03-23T16:22:43;4.53;;;0.90;;
64031;SDS011;50278;47.796;11.968;2023-03-23T16:25:10;2.28;;;0.93;;
64031;SDS011;50278;47.796;11.968;2023-03-23T16:27:36;2.78;;;1.02;;
64031;SDS011;50278;47.796;11.968;2023-03-23T16:30:13;1.67;;;0.90;;
64031;SDS011;50278;47.796;11.968;2023-03-23T16:32:40;3.83;;;1.00;;
64031;SDS011;50278;47.796;11.968;2023-03-23T16:35:06;3.60;;;0.90;;
64031;SDS011;50278;47.796;11.968;2023-03-23T16:37:36;1.77;;;1.02;;
64031;SDS011;50278;47.796;11.968;2023-03-23T16:40:02;3.05;;;1.38;;
64031;SDS011;50278;47.796;11.968;2023-03-23T16:42:29;5.78;;;0.90;;
64031;SDS011;50278;47.796;11.968;2023-03-23T16:44:55;3.83;;;1.83;;
64031;SDS011;50278;47.796;11.968;2023-03-23T16:47:20;3.00;;;1.15;;
64031;SDS011;50278;47.796;11.968;2023-03-23T16:49:50;1.40;;;0.90;;
64031;SDS011;50278;47.796;11.968;2023-03-23T16:52:16;7.30;;;1.30;;
64031;SDS011;50278;47.796;11.968;2023-03-23T16:54:42;2.50;;;0.93;;
64031;SDS011;50278;47.796;11.968;2023-03-23T16:57:08;4.63;;;1.15;;
64031;SDS011;50278;47.796;11.968;2023-03-23T16:59:33;4.03;;;1.05;;
64031;SDS011;50278;47.796;11.968;2023-03-23T17:01:58;4.65;;;1.33;;
64031;SDS011;50278;47.796;11.968;2023-03-23T17:04:28;4.13;;;1.00;;
64031;SDS011;50278;47.796;11.968;2023-03-23T17:06:54;4.35;;;0.90;;
64031;SDS011;50278;47.796;11.968;2023-03-23T17:09:20;4.68;;;1.90;;
64031;SDS011;50278;47.796;11.968;2023-03-23T17:11:45;2.50;;;1.17;;
64031;SDS011;50278;47.796;11.968;2023-03-23T17:14:11;2.95;;;1.30;;
64031;SDS011;50278;47.796;11.968;2023-03-23T17:16:36;3.38;;;1.40;;
64031;SDS011;50278;47.796;11.968;2023-03-23T17:19:03;2.22;;;1.02;;
64031;SDS011;50278;47.796;11.968;2023-03-23T17:21:31;4.38;;;1.80;;